createdAt,value
2022-11-18T00:01:23.982Z,98829.00
2022-11-18T00:03:53.098Z,98826.00
2022-11-18T00:06:23.333Z,98827.00
2022-11-18T00:08:51.982Z,98824.00
2022-11-18T00:11:41.322Z,98830.00
2022-11-18T00:14:29.699Z,98826.00
2022-11-18T00:17:01.460Z,98827.00
2022-11-18T00:19:32.788Z,98828.00
2022-11-18T00:22:01.548Z,98832.00
2022-11-18T00:24:29.539Z,98833.00
2022-11-18T00:26:57.681Z,98829.00
2022-11-18T00:29:29.096Z,98827.00
2022-11-18T00:31:58.298Z,98826.00
2022-11-18T00:34:26.500Z,98831.00
2022-11-18T00:36:54.656Z,98839.00
2022-11-18T00:39:23.274Z,98827.00
2022-11-18T00:42:09.919Z,98827.00
2022-11-18T00:44:37.888Z,98826.00
2022-11-18T00:47:05.974Z,98832.00
2022-11-18T00:49:33.763Z,98831.00
2022-11-18T00:52:02.070Z,98833.00
2022-11-18T00:54:30.382Z,98835.00
2022-11-18T00:56:58.305Z,98829.00
2022-11-18T00:59:26.432Z,98833.00
2022-11-18T01:01:54.546Z,98835.00
2022-11-18T01:04:22.627Z,98835.00
2022-11-18T01:06:50.624Z,98835.00
2022-11-18T01:09:18.666Z,98827.00
2022-11-18T01:12:05.262Z,98833.00
2022-11-18T01:14:33.245Z,98837.00
2022-11-18T01:17:01.880Z,98841.00
2022-11-18T01:19:29.710Z,98847.00
2022-11-18T01:22:03.213Z,98859.00
2022-11-18T01:24:32.898Z,98857.00
2022-11-18T01:27:01.786Z,98862.00
2022-11-18T01:29:29.804Z,98866.00
2022-11-18T01:34:45.352Z,98876.00
2022-11-18T01:37:13.316Z,98874.00
2022-11-18T01:39:41.214Z,98868.00
2022-11-18T01:42:15.988Z,98868.00
2022-11-18T01:45:00.348Z,98864.00
2022-11-18T01:47:33.844Z,98866.00
2022-11-18T01:50:01.915Z,98867.00
2022-11-18T01:52:30.356Z,98865.00
2022-11-18T01:55:02.477Z,98869.00
2022-11-18T01:57:32.599Z,98870.00
2022-11-18T02:00:04.757Z,98867.00
2022-11-18T02:02:34.619Z,98861.00
2022-11-18T02:05:04.598Z,98860.00
2022-11-18T02:07:36.572Z,98860.00
2022-11-18T02:10:07.071Z,98871.00
2022-11-18T02:12:35.752Z,98869.00
2022-11-18T02:15:03.835Z,98874.00
2022-11-18T02:17:56.949Z,98873.00
2022-11-18T02:20:32.068Z,98878.00
2022-11-18T02:22:59.907Z,98887.00
2022-11-18T02:25:27.654Z,98888.00
2022-11-18T02:28:29.568Z,98885.00
2022-11-18T02:31:16.803Z,98885.00
2022-11-18T02:33:57.262Z,98882.00
2022-11-18T02:36:51.221Z,98881.00
2022-11-18T02:39:24.579Z,98890.00
2022-11-18T02:41:54.231Z,98888.00
2022-11-18T02:44:23.554Z,98888.00
2022-11-18T02:46:54.804Z,98891.00
2022-11-18T02:49:35.249Z,98899.00
2022-11-18T02:52:04.248Z,98898.00
2022-11-18T02:54:34.384Z,98894.00
2022-11-18T02:57:03.526Z,98898.00
2022-11-18T02:59:31.380Z,98906.00
2022-11-18T03:02:00.012Z,98904.00
2022-11-18T03:04:28.138Z,98906.00
2022-11-18T03:07:17.975Z,98897.00
2022-11-18T03:09:49.057Z,98901.00
2022-11-18T03:12:32.909Z,98909.00
2022-11-18T03:15:00.551Z,98905.00
2022-11-18T03:17:56.202Z,98903.00
2022-11-18T03:20:39.997Z,98913.00
2022-11-18T03:23:25.675Z,98911.00
2022-11-18T03:26:01.478Z,98920.00
2022-11-18T03:28:49.769Z,98914.00
2022-11-18T03:31:37.402Z,98923.00
2022-11-18T03:34:10.388Z,98924.00
2022-11-18T03:36:46.818Z,98929.00
2022-11-18T03:39:19.182Z,98933.00
2022-11-18T03:41:56.546Z,98936.00
2022-11-18T03:44:30.059Z,98950.00
2022-11-18T03:47:01.533Z,98948.00
2022-11-18T03:49:43.528Z,98951.00
2022-11-18T03:52:16.338Z,98955.00
2022-11-18T03:54:47.096Z,98958.00
2022-11-18T03:57:25.631Z,98957.00
2022-11-18T04:00:14.711Z,98962.00
2022-11-18T04:02:42.852Z,98965.00
2022-11-18T04:05:12.208Z,98963.00
2022-11-18T04:08:00.550Z,98960.00
2022-11-18T04:10:35.930Z,98963.00
2022-11-18T04:13:15.023Z,98970.00
2022-11-18T04:15:43.357Z,98968.00
2022-11-18T04:18:11.864Z,98976.00
2022-11-18T04:20:40.343Z,98969.00
2022-11-18T04:23:08.781Z,98975.00
2022-11-18T04:25:36.970Z,98967.00
2022-11-18T04:28:05.499Z,98969.00
2022-11-18T04:30:33.687Z,98979.00
2022-11-18T04:33:01.528Z,98987.00
2022-11-18T04:35:29.451Z,98996.00
2022-11-18T04:37:57.405Z,98999.00
2022-11-18T04:40:25.368Z,99003.00
2022-11-18T04:42:53.126Z,99009.00
2022-11-18T04:45:20.830Z,99012.00
2022-11-18T04:47:48.603Z,99021.00
2022-11-18T04:50:16.592Z,99013.00
2022-11-18T04:52:45.060Z,99017.00
2022-11-18T04:55:13.034Z,99015.00
2022-11-18T04:57:40.899Z,99016.00
2022-11-18T05:00:09.330Z,99017.00
2022-11-18T05:02:37.284Z,99014.00
2022-11-18T05:05:05.435Z,99025.00
2022-11-18T05:07:33.421Z,99017.00
2022-11-18T05:10:01.339Z,99018.00
2022-11-18T05:12:48.683Z,99018.00
2022-11-18T05:15:20.367Z,99006.00
2022-11-18T05:17:48.756Z,99014.00
2022-11-18T05:20:16.975Z,99009.00
2022-11-18T05:22:44.862Z,99012.00
2022-11-18T05:25:12.662Z,99025.00
2022-11-18T05:27:40.354Z,99038.00
2022-11-18T05:30:08.815Z,99042.00
2022-11-18T05:32:36.517Z,99052.00
2022-11-18T05:35:04.500Z,99041.00
2022-11-18T05:37:34.014Z,99059.00
2022-11-18T05:40:01.822Z,99054.00
2022-11-18T05:42:48.179Z,99055.00
2022-11-18T05:45:16.433Z,99057.00
2022-11-18T05:48:04.283Z,99058.00
2022-11-18T05:50:33.944Z,99056.00
2022-11-18T05:53:02.124Z,99063.00
2022-11-18T05:55:38.915Z,99065.00
2022-11-18T05:58:06.798Z,99074.00
2022-11-18T06:00:35.392Z,99081.00
2022-11-18T06:03:04.420Z,99090.00
2022-11-18T06:05:32.149Z,99089.00
2022-11-18T06:08:00.078Z,99092.00
2022-11-18T06:10:35.084Z,99097.00
2022-11-18T06:13:06.142Z,99103.00
2022-11-18T06:15:40.736Z,99097.00
2022-11-18T06:18:27.551Z,99097.00
2022-11-18T06:21:01.188Z,99110.00
2022-11-18T06:23:34.553Z,99111.00
2022-11-18T06:26:02.431Z,99104.00
2022-11-18T06:28:30.906Z,99113.00
2022-11-18T06:30:59.417Z,99112.00
2022-11-18T06:33:27.204Z,99127.00
2022-11-18T06:35:55.057Z,99123.00
2022-11-18T06:38:25.455Z,99129.00
2022-11-18T06:40:53.518Z,99132.00
2022-11-18T06:43:39.574Z,99134.00
2022-11-18T06:46:28.964Z,99136.00
2022-11-18T06:48:57.382Z,99143.00
2022-11-18T06:51:25.451Z,99136.00
2022-11-18T06:53:53.403Z,99138.00
2022-11-18T06:56:22.548Z,99148.00
2022-11-18T06:58:55.224Z,99148.00
2022-11-18T07:01:25.846Z,99152.00
2022-11-18T07:03:54.359Z,99156.00
2022-11-18T07:06:27.734Z,99157.00
2022-11-18T07:08:55.819Z,99163.00
2022-11-18T07:11:25.622Z,99167.00
2022-11-18T07:13:53.833Z,99174.00
2022-11-18T07:16:23.861Z,99169.00
2022-11-18T07:18:52.890Z,99177.00
2022-11-18T07:21:26.673Z,99176.00
2022-11-18T07:23:57.834Z,99172.00
2022-11-18T07:26:25.744Z,99173.00
2022-11-18T07:28:54.888Z,99174.00
2022-11-18T07:31:22.844Z,99177.00
2022-11-18T07:33:53.874Z,99169.00
2022-11-18T07:36:24.027Z,99179.00
2022-11-18T07:38:51.932Z,99177.00
2022-11-18T07:41:25.487Z,99196.00
2022-11-18T07:44:00.447Z,99194.00
2022-11-18T07:46:30.522Z,99196.00
2022-11-18T07:48:59.651Z,99204.00
2022-11-18T07:51:36.085Z,99197.00
2022-11-18T07:54:22.131Z,99213.00
2022-11-18T07:56:49.887Z,99214.00
2022-11-18T07:59:18.146Z,99223.00
2022-11-18T08:01:46.179Z,99217.00
2022-11-18T08:04:14.052Z,99226.00
2022-11-18T08:06:42.224Z,99234.00
2022-11-18T08:09:10.208Z,99240.00
2022-11-18T08:11:38.196Z,99240.00
2022-11-18T08:14:05.924Z,99240.00
2022-11-18T08:16:33.707Z,99249.00
2022-11-18T08:19:01.476Z,99258.00
2022-11-18T08:21:29.640Z,99252.00
2022-11-18T08:23:58.634Z,99251.00
2022-11-18T08:26:27.431Z,99256.00
2022-11-18T08:28:55.357Z,99260.00
2022-11-18T08:31:25.531Z,99261.00
2022-11-18T08:34:04.811Z,99274.00
2022-11-18T08:36:34.583Z,99273.00
2022-11-18T08:39:04.388Z,99269.00
2022-11-18T08:41:41.716Z,99273.00
2022-11-18T08:44:12.664Z,99278.00
2022-11-18T08:46:41.007Z,99282.00
2022-11-18T08:49:08.939Z,99284.00
2022-11-18T08:51:37.245Z,99280.00
2022-11-18T08:54:05.656Z,99289.00
2022-11-18T08:56:33.586Z,99292.00
2022-11-18T08:59:01.555Z,99288.00
2022-11-18T09:01:29.534Z,99295.00
2022-11-18T09:03:58.028Z,99295.00
2022-11-18T09:06:26.787Z,99298.00
2022-11-18T09:08:55.124Z,99308.00
2022-11-18T09:11:29.830Z,99305.00
2022-11-18T09:16:47.750Z,99305.00
2022-11-18T09:22:05.055Z,99310.00
2022-11-18T09:24:33.333Z,99312.00
2022-11-18T09:27:05.681Z,99319.00
2022-11-18T09:29:33.855Z,99326.00
2022-11-18T09:32:02.349Z,99331.00
2022-11-18T09:34:30.762Z,99329.00
2022-11-18T09:36:58.646Z,99335.00
2022-11-18T09:39:26.827Z,99337.00
2022-11-18T09:42:21.470Z,99342.00
2022-11-18T09:45:14.557Z,99340.00
2022-11-18T09:47:43.282Z,99348.00
2022-11-18T09:53:21.965Z,99350.00
2022-11-18T09:55:51.366Z,99366.00
2022-11-18T09:58:32.753Z,99358.00
2022-11-18T10:01:01.099Z,99374.00
2022-11-18T10:03:33.441Z,99371.00
2022-11-18T10:06:04.456Z,99366.00
2022-11-18T10:08:38.717Z,99378.00
2022-11-18T10:11:21.341Z,99371.00
2022-11-18T10:14:19.636Z,99373.00
2022-11-18T10:17:07.131Z,99371.00
2022-11-18T10:19:53.611Z,99374.00
2022-11-18T10:22:37.444Z,99384.00
2022-11-18T10:25:16.442Z,99388.00
2022-11-18T10:27:46.364Z,99390.00
2022-11-18T10:30:17.397Z,99385.00
2022-11-18T10:33:05.848Z,99400.00
2022-11-18T10:35:39.208Z,99395.00
2022-11-18T10:38:14.276Z,99408.00
2022-11-18T10:40:47.931Z,99415.00
2022-11-18T10:43:42.599Z,99411.00
2022-11-18T10:46:20.389Z,99420.00
2022-11-18T10:48:48.268Z,99421.00
2022-11-18T10:51:24.259Z,99416.00
2022-11-18T10:53:52.002Z,99424.00
2022-11-18T10:56:20.320Z,99425.00
2022-11-18T10:58:50.193Z,99433.00
2022-11-18T11:01:26.192Z,99433.00
2022-11-18T11:04:04.801Z,99430.00
2022-11-18T11:06:39.463Z,99428.00
2022-11-18T11:09:30.512Z,99426.00
2022-11-18T11:12:16.244Z,99433.00
2022-11-18T11:15:00.722Z,99434.00
2022-11-18T11:17:32.552Z,99443.00
2022-11-18T11:20:18.762Z,99448.00
2022-11-18T11:22:46.914Z,99446.00
2022-11-18T11:28:57.404Z,99448.00
2022-11-18T11:31:53.005Z,99452.00
2022-11-18T11:34:43.275Z,99456.00
2022-11-18T11:37:43.619Z,99460.00
2022-11-18T11:40:26.089Z,99464.00
2022-11-18T11:43:12.547Z,99458.00
2022-11-18T11:45:58.725Z,99463.00
2022-11-18T11:48:35.496Z,99475.00
2022-11-18T11:51:16.722Z,99473.00
2022-11-18T11:53:56.700Z,99465.00
2022-11-18T11:56:45.582Z,99472.00
2022-11-18T11:59:32.062Z,99473.00
2022-11-18T12:02:57.655Z,99479.00
2022-11-18T12:05:39.676Z,99482.00
2022-11-18T12:08:09.729Z,99486.00
2022-11-18T12:11:14.220Z,99495.00
2022-11-18T12:13:52.653Z,99501.00
2022-11-18T12:16:51.648Z,99489.00
2022-11-18T12:19:21.633Z,99492.00
2022-11-18T12:22:05.477Z,99498.00
2022-11-18T12:24:37.896Z,99505.00
2022-11-18T12:27:12.896Z,99503.00
2022-11-18T12:29:50.114Z,99501.00
2022-11-18T12:32:36.794Z,99501.00
2022-11-18T12:35:33.028Z,99505.00
2022-11-18T12:38:01.715Z,99502.00
2022-11-18T12:40:41.921Z,99504.00
2022-11-18T12:43:47.838Z,99507.00
2022-11-18T12:46:45.414Z,99511.00
2022-11-18T12:49:22.780Z,99517.00
2022-11-18T12:51:52.489Z,99520.00
2022-11-18T12:54:33.491Z,99528.00
2022-11-18T12:57:19.943Z,99531.00
2022-11-18T12:59:47.886Z,99535.00
2022-11-18T13:02:28.625Z,99536.00
2022-11-18T13:05:08.758Z,99535.00
2022-11-18T13:08:04.621Z,99540.00
2022-11-18T13:10:35.135Z,99547.00
2022-11-18T13:13:03.619Z,99545.00
2022-11-18T13:15:49.986Z,99548.00
2022-11-18T13:18:21.720Z,99540.00
2022-11-18T13:20:59.309Z,99543.00
2022-11-18T13:23:48.796Z,99561.00
2022-11-18T13:26:20.962Z,99555.00
2022-11-18T13:29:16.488Z,99554.00
2022-11-18T13:32:13.786Z,99566.00
2022-11-18T13:34:49.342Z,99569.00
2022-11-18T13:37:23.350Z,99576.00
2022-11-18T13:39:51.687Z,99570.00
2022-11-18T13:42:24.035Z,99574.00
2022-11-18T13:44:55.702Z,99575.00
2022-11-18T13:47:29.373Z,99583.00
2022-11-18T13:50:21.179Z,99575.00
2022-11-18T13:52:52.018Z,99581.00
2022-11-18T13:55:25.872Z,99583.00
2022-11-18T13:58:07.031Z,99583.00
2022-11-18T14:00:36.701Z,99580.00
2022-11-18T14:03:15.458Z,99585.00
2022-11-18T14:05:43.376Z,99589.00
2022-11-18T14:08:31.486Z,99587.00
2022-11-18T14:11:00.104Z,99592.00
2022-11-18T14:13:31.459Z,99598.00
2022-11-18T14:16:01.993Z,99596.00
2022-11-18T14:18:35.456Z,99599.00
2022-11-18T14:21:05.173Z,99599.00
2022-11-18T14:23:34.930Z,99611.00
2022-11-18T14:26:05.103Z,99613.00
2022-11-18T14:28:37.595Z,99610.00
2022-11-18T14:31:07.748Z,99613.00
2022-11-18T14:33:39.308Z,99618.00
2022-11-18T14:36:16.484Z,99623.00
2022-11-18T14:39:11.226Z,99629.00
2022-11-18T14:41:47.634Z,99633.00
2022-11-18T14:44:15.885Z,99631.00
2022-11-18T14:46:46.007Z,99632.00
2022-11-18T14:49:19.285Z,99644.00
2022-11-18T14:51:47.832Z,99647.00
2022-11-18T14:54:23.886Z,99646.00
2022-11-18T14:56:58.419Z,99652.00
2022-11-18T14:59:26.654Z,99653.00
2022-11-18T15:01:55.118Z,99659.00
2022-11-18T15:04:23.172Z,99660.00
2022-11-18T15:06:51.197Z,99666.00
2022-11-18T15:09:19.532Z,99671.00
2022-11-18T15:11:47.983Z,99673.00
2022-11-18T15:14:16.154Z,99677.00
2022-11-18T15:16:44.417Z,99677.00
2022-11-18T15:19:16.095Z,99682.00
2022-11-18T15:21:45.600Z,99684.00
2022-11-18T15:24:13.841Z,99674.00
2022-11-18T15:26:44.288Z,99679.00
2022-11-18T15:29:23.742Z,99692.00
2022-11-18T15:31:52.064Z,99685.00
2022-11-18T15:34:21.775Z,99690.00
2022-11-18T15:36:49.986Z,99692.00
2022-11-18T15:39:18.154Z,99688.00
2022-11-18T15:41:45.905Z,99701.00
2022-11-18T15:44:13.648Z,99697.00
2022-11-18T15:46:41.750Z,99705.00
2022-11-18T15:49:14.508Z,99705.00
2022-11-18T15:51:42.382Z,99705.00
2022-11-18T15:54:10.283Z,99713.00
2022-11-18T15:56:39.999Z,99712.00
2022-11-18T15:59:12.689Z,99716.00
2022-11-18T16:01:45.640Z,99726.00
2022-11-18T16:04:15.374Z,99714.00
2022-11-18T16:06:43.779Z,99722.00
2022-11-18T16:09:12.717Z,99726.00
2022-11-18T16:11:59.059Z,99719.00
2022-11-18T16:14:27.199Z,99723.00
2022-11-18T16:16:56.652Z,99725.00
2022-11-18T16:19:26.111Z,99725.00
2022-11-18T16:21:57.087Z,99724.00
2022-11-18T16:24:29.309Z,99732.00
2022-11-18T16:26:57.453Z,99728.00
2022-11-18T16:29:25.895Z,99733.00
2022-11-18T16:34:42.214Z,99748.00
2022-11-18T16:37:10.076Z,99753.00
2022-11-18T16:39:37.948Z,99754.00
2022-11-18T16:40:28.282Z,99745.00
2022-11-18T16:42:08.677Z,99765.00
2022-11-18T16:44:38.090Z,99764.00
2022-11-18T16:47:12.696Z,99769.00
2022-11-18T16:49:42.557Z,99769.00
2022-11-18T16:52:10.500Z,99778.00
2022-11-18T16:54:44.313Z,99780.00
2022-11-18T16:57:13.190Z,99788.00
2022-11-18T16:59:41.017Z,99782.00
2022-11-18T17:02:10.729Z,99789.00
2022-11-18T17:04:38.893Z,99789.00
2022-11-18T17:07:09.633Z,99788.00
2022-11-18T17:09:37.592Z,99789.00
2022-11-18T17:12:05.823Z,99793.00
2022-11-18T17:14:34.239Z,99793.00
2022-11-18T17:17:01.888Z,99795.00
2022-11-18T17:19:29.580Z,99791.00
2022-11-18T17:21:58.106Z,99796.00
2022-11-18T17:24:26.219Z,99787.00
2022-11-18T17:26:54.760Z,99802.00
2022-11-18T17:29:22.754Z,99798.00
2022-11-18T17:31:50.667Z,99797.00
2022-11-18T17:34:19.344Z,99803.00
2022-11-18T17:36:47.218Z,99811.00
2022-11-18T17:39:16.210Z,99822.00
2022-11-18T17:42:02.838Z,99827.00
2022-11-18T17:44:30.682Z,99826.00
2022-11-18T17:46:59.845Z,99831.00
2022-11-18T17:49:27.569Z,99832.00
2022-11-18T17:51:55.350Z,99837.00
2022-11-18T17:54:23.406Z,99842.00
2022-11-18T17:56:54.421Z,99845.00
2022-11-18T17:59:23.196Z,99848.00
2022-11-18T18:01:57.357Z,99854.00
2022-11-18T18:04:27.244Z,99859.00
2022-11-18T18:06:55.333Z,99845.00
2022-11-18T18:09:30.047Z,99841.00
2022-11-18T18:11:59.756Z,99849.00
2022-11-18T18:14:27.796Z,99854.00
2022-11-18T18:16:55.592Z,99854.00
2022-11-18T18:19:24.457Z,99864.00
2022-11-18T18:21:53.800Z,99863.00
2022-11-18T18:24:22.630Z,99860.00
2022-11-18T18:26:51.210Z,99866.00
2022-11-18T18:29:18.969Z,99865.00
2022-11-18T18:31:47.072Z,99867.00
2022-11-18T18:34:15.140Z,99870.00
2022-11-18T18:36:43.401Z,99869.00
2022-11-18T18:39:11.474Z,99878.00
2022-11-18T18:41:39.418Z,99877.00
2022-11-18T18:44:07.334Z,99886.00
2022-11-18T18:46:36.910Z,99898.00
2022-11-18T18:49:07.923Z,99902.00
2022-11-18T18:51:38.314Z,99900.00
2022-11-18T18:54:07.172Z,99909.00
2022-11-18T18:56:35.349Z,99916.00
2022-11-18T18:59:03.523Z,99916.00
2022-11-18T19:01:31.446Z,99908.00
2022-11-18T19:04:01.368Z,99905.00
2022-11-18T19:09:21.384Z,99895.00
2022-11-18T19:12:07.736Z,99904.00
2022-11-18T19:14:36.117Z,99917.00
2022-11-18T19:17:10.133Z,99912.00
2022-11-18T19:19:58.512Z,99911.00
2022-11-18T19:22:26.413Z,99904.00
2022-11-18T19:24:54.807Z,99904.00
2022-11-18T19:27:23.085Z,99919.00
2022-11-18T19:29:51.008Z,99918.00
2022-11-18T19:32:19.253Z,99930.00
2022-11-18T19:34:47.027Z,99924.00
2022-11-18T19:37:15.026Z,99927.00
2022-11-18T19:39:42.822Z,99937.00
2022-11-18T19:42:11.436Z,99945.00
2022-11-18T19:44:39.835Z,99947.00
2022-11-18T19:47:07.785Z,99948.00
2022-11-18T19:49:35.660Z,99941.00
2022-11-18T19:52:03.639Z,99954.00
2022-11-18T19:54:31.396Z,99951.00
2022-11-18T19:57:00.045Z,99946.00
2022-11-18T19:59:28.028Z,99952.00
2022-11-18T20:01:56.453Z,99949.00
2022-11-18T20:04:24.456Z,99958.00
2022-11-18T20:06:52.361Z,99952.00
2022-11-18T20:09:20.521Z,99946.00
2022-11-18T20:11:49.900Z,99951.00
2022-11-18T20:14:18.068Z,99954.00
2022-11-18T20:16:45.812Z,99961.00
2022-11-18T20:19:13.888Z,99968.00
2022-11-18T20:21:45.525Z,99963.00
2022-11-18T20:24:18.582Z,99969.00
2022-11-18T20:26:46.736Z,99971.00
2022-11-18T20:29:18.035Z,99970.00
2022-11-18T20:31:46.189Z,99965.00
2022-11-18T20:34:15.031Z,99967.00
2022-11-18T20:36:43.059Z,99972.00
2022-11-18T20:39:15.789Z,99980.00
2022-11-18T20:42:04.308Z,99966.00
2022-11-18T20:44:32.556Z,99977.00
2022-11-18T20:47:00.562Z,99978.00
2022-11-18T20:49:28.738Z,99988.00
2022-11-18T20:51:56.677Z,99981.00
2022-11-18T20:54:24.497Z,99988.00
2022-11-18T20:56:52.341Z,99983.00
2022-11-18T20:59:20.626Z,99981.00
2022-11-18T21:01:49.179Z,99983.00
2022-11-18T21:04:17.824Z,99979.00
2022-11-18T21:06:45.974Z,99985.00
2022-11-18T21:09:14.691Z,99977.00
2022-11-18T21:11:42.464Z,99989.00
2022-11-18T21:14:24.537Z,99991.00
2022-11-18T21:17:03.814Z,99978.00
2022-11-18T21:19:35.227Z,99988.00
2022-11-18T21:22:03.029Z,99992.00
2022-11-18T21:24:32.645Z,99991.00
2022-11-18T21:27:02.450Z,99988.00
2022-11-18T21:29:32.105Z,100000.00
2022-11-18T21:32:03.636Z,100003.00
2022-11-18T21:34:32.163Z,100000.00
2022-11-18T21:37:00.275Z,100005.00
2022-11-18T21:39:28.265Z,100006.00
2022-11-18T21:41:57.258Z,100004.00
2022-11-18T21:44:28.560Z,100007.00
2022-11-18T21:46:57.804Z,100010.00
2022-11-18T21:49:25.731Z,100025.00
2022-11-18T21:51:53.578Z,100029.00
2022-11-18T21:54:21.395Z,100029.00
2022-11-18T21:56:49.742Z,100034.00
2022-11-18T21:59:17.792Z,100036.00
2022-11-18T22:01:45.753Z,100032.00
2022-11-18T22:04:33.454Z,100026.00
2022-11-18T22:07:01.491Z,100032.00
2022-11-18T22:09:35.822Z,100032.00
2022-11-18T22:12:05.036Z,100036.00
2022-11-18T22:14:32.928Z,100031.00
2022-11-18T22:17:00.633Z,100029.00
2022-11-18T22:19:28.676Z,100030.00
2022-11-18T22:21:58.829Z,100031.00
2022-11-18T22:24:26.773Z,100033.00
2022-11-18T22:26:54.642Z,100037.00
2022-11-18T22:29:24.377Z,100040.00
2022-11-18T22:31:53.202Z,100044.00
2022-11-18T22:34:21.639Z,100049.00
2022-11-18T22:36:49.493Z,100051.00
2022-11-18T22:39:17.954Z,100055.00
2022-11-18T22:42:04.695Z,100058.00
2022-11-18T22:44:32.543Z,100060.00
2022-11-18T22:47:00.371Z,100066.00
2022-11-18T22:49:28.288Z,100067.00
2022-11-18T22:51:56.060Z,100056.00
2022-11-18T22:54:38.399Z,100079.00
2022-11-18T22:57:07.088Z,100068.00
2022-11-18T22:59:34.953Z,100080.00
2022-11-18T23:02:05.257Z,100070.00
2022-11-18T23:04:33.088Z,100076.00
2022-11-18T23:07:01.091Z,100076.00
2022-11-18T23:09:29.013Z,100076.00
2022-11-18T23:12:15.710Z,100076.00
2022-11-18T23:14:43.771Z,100079.00
2022-11-18T23:17:11.730Z,100079.00
2022-11-18T23:19:43.769Z,100084.00
2022-11-18T23:22:12.353Z,100080.00
2022-11-18T23:24:40.362Z,100091.00
2022-11-18T23:27:08.599Z,100088.00
2022-11-18T23:29:36.459Z,100090.00
2022-11-18T23:32:04.743Z,100099.00
2022-11-18T23:34:32.550Z,100109.00
2022-11-18T23:37:00.366Z,100114.00
2022-11-18T23:39:28.355Z,100108.00
2022-11-18T23:41:56.273Z,100108.00
2022-11-18T23:44:44.043Z,100102.00
2022-11-18T23:47:11.778Z,100105.00
2022-11-18T23:49:39.637Z,100109.00
2022-11-18T23:52:07.558Z,100111.00
2022-11-18T23:54:35.524Z,100121.00
2022-11-18T23:57:05.614Z,100110.00
2022-11-18T23:59:33.677Z,100111.00
